createdAt,value
2018-07-27T00:01:22.307Z,3.20
2018-07-27T00:06:15.861Z,3.80
2018-07-27T00:11:10.789Z,3.70
2018-07-27T00:16:04.982Z,2.60
2018-07-27T00:21:01.117Z,3.10
2018-07-27T00:25:53.740Z,2.60
2018-07-27T00:30:46.866Z,3.00
2018-07-27T00:35:40.785Z,3.90
2018-07-27T00:40:35.053Z,2.90
2018-07-27T00:45:28.231Z,3.00
2018-07-27T00:50:21.747Z,2.90
2018-07-27T00:55:16.112Z,3.30
2018-07-27T01:00:09.499Z,9.40
2018-07-27T01:05:02.848Z,6.00
2018-07-27T01:09:57.536Z,5.30
2018-07-27T01:14:53.088Z,4.50
2018-07-27T01:19:45.856Z,4.70
2018-07-27T01:24:39.164Z,4.70
2018-07-27T01:29:33.579Z,4.50
2018-07-27T01:34:27.632Z,3.60
2018-07-27T01:39:20.620Z,2.70
2018-07-27T01:44:13.731Z,3.60
2018-07-27T01:49:08.347Z,3.70
2018-07-27T01:54:01.213Z,2.50
2018-07-27T01:58:55.287Z,3.00
2018-07-27T02:03:49.499Z,2.70
2018-07-27T02:08:42.931Z,2.80
2018-07-27T02:13:36.184Z,2.30
2018-07-27T02:18:30.438Z,3.20
2018-07-27T02:23:24.412Z,3.20
2018-07-27T02:28:17.440Z,2.60
2018-07-27T02:33:11.381Z,3.40
2018-07-27T02:38:05.620Z,3.30
2018-07-27T02:42:59.886Z,3.40
2018-07-27T02:47:53.066Z,2.30
2018-07-27T02:52:46.200Z,3.80
2018-07-27T02:57:42.568Z,3.70
2018-07-27T03:02:38.509Z,3.90
2018-07-27T03:07:34.989Z,3.20
2018-07-27T03:12:30.359Z,3.40
2018-07-27T03:17:26.884Z,3.10
2018-07-27T03:22:22.365Z,3.40
2018-07-27T03:27:18.489Z,4.30
2018-07-27T03:32:13.928Z,3.80
2018-07-27T03:37:10.245Z,3.40
2018-07-27T03:42:06.597Z,3.40
2018-07-27T03:47:02.068Z,4.40
2018-07-27T03:51:57.676Z,4.40
2018-07-27T03:56:54.709Z,4.70
2018-07-27T04:01:49.705Z,3.70
2018-07-27T04:06:51.165Z,4.10
2018-07-27T04:11:46.744Z,3.80
2018-07-27T04:16:42.304Z,4.40
2018-07-27T04:21:38.888Z,4.90
2018-07-27T04:26:34.903Z,4.40
2018-07-27T04:31:29.932Z,3.60
2018-07-27T04:36:25.530Z,4.10
2018-07-27T04:41:22.221Z,4.90
2018-07-27T04:46:15.349Z,3.90
2018-07-27T04:51:12.140Z,4.80
2018-07-27T04:56:07.573Z,5.20
2018-07-27T05:01:01.672Z,4.20
2018-07-27T05:05:55.569Z,5.10
2018-07-27T05:10:47.060Z,4.50
2018-07-27T05:15:42.882Z,4.00
2018-07-27T05:20:40.042Z,4.60
2018-07-27T05:25:32.105Z,5.40
2018-07-27T05:30:25.522Z,4.70
2018-07-27T05:35:16.465Z,4.50
2018-07-27T05:40:08.081Z,5.10
2018-07-27T05:45:01.870Z,6.10
2018-07-27T05:49:51.724Z,4.40
2018-07-27T05:54:46.296Z,4.70
2018-07-27T05:59:37.522Z,3.90
2018-07-27T06:04:29.406Z,4.50
2018-07-27T06:09:22.808Z,5.00
2018-07-27T06:14:15.027Z,4.60
2018-07-27T06:19:08.216Z,5.20
2018-07-27T06:23:59.814Z,4.60
2018-07-27T06:28:53.369Z,3.80
2018-07-27T06:33:46.883Z,3.70
2018-07-27T06:38:37.553Z,4.00
2018-07-27T06:43:30.416Z,4.90
2018-07-27T06:48:24.877Z,4.40
2018-07-27T06:53:18.976Z,5.10
2018-07-27T06:58:16.426Z,4.80
2018-07-27T07:03:05.235Z,4.60
2018-07-27T07:07:55.829Z,4.00
2018-07-27T07:12:47.588Z,4.40
2018-07-27T07:17:39.790Z,4.00
2018-07-27T07:22:32.539Z,3.80
2018-07-27T07:27:24.092Z,11.90
2018-07-27T07:32:16.220Z,3.90
2018-07-27T07:37:10.268Z,6.60
2018-07-27T07:42:05.382Z,5.60
2018-07-27T07:46:58.820Z,4.70
2018-07-27T07:51:55.125Z,4.10
2018-07-27T07:56:48.559Z,4.90
2018-07-27T08:01:44.382Z,6.40
2018-07-27T08:06:38.943Z,4.10
2018-07-27T08:11:32.278Z,4.70
2018-07-27T08:16:25.856Z,4.90
2018-07-27T08:21:19.748Z,4.30
2018-07-27T08:26:13.336Z,4.10
2018-07-27T08:31:07.055Z,4.40
2018-07-27T08:36:00.640Z,4.90
2018-07-27T08:40:54.392Z,3.60
2018-07-27T08:45:48.328Z,3.80
2018-07-27T08:50:42.063Z,4.80
2018-07-27T08:55:38.089Z,4.60
2018-07-27T09:00:33.625Z,4.60
2018-07-27T09:05:28.906Z,5.00
2018-07-27T09:10:24.447Z,4.50
2018-07-27T09:15:19.857Z,4.80
2018-07-27T09:20:15.491Z,5.40
2018-07-27T09:25:13.021Z,4.30
2018-07-27T09:30:12.139Z,4.70
2018-07-27T09:35:06.666Z,4.60
2018-07-27T09:40:02.363Z,5.30
2018-07-27T09:44:57.372Z,5.00
2018-07-27T09:49:52.673Z,5.10
2018-07-27T09:54:48.373Z,6.20
2018-07-27T09:59:43.014Z,5.60
2018-07-27T10:04:38.002Z,5.40
2018-07-27T10:09:33.474Z,5.00
2018-07-27T10:14:28.664Z,6.30
2018-07-27T10:19:25.094Z,4.80
2018-07-27T10:24:26.217Z,5.20
2018-07-27T10:29:20.028Z,4.80
2018-07-27T10:34:15.472Z,5.00
2018-07-27T10:39:11.372Z,3.90
2018-07-27T10:44:06.277Z,4.30
2018-07-27T10:49:01.347Z,5.50
2018-07-27T10:54:01.474Z,5.20
2018-07-27T10:58:58.261Z,5.10
2018-07-27T11:04:18.317Z,4.90
2018-07-27T11:09:13.263Z,5.80
2018-07-27T11:14:08.464Z,5.10
2018-07-27T11:19:05.270Z,5.00
2018-07-27T11:24:00.905Z,4.40
2018-07-27T11:28:59.060Z,4.90
2018-07-27T11:33:57.217Z,5.00
2018-07-27T11:38:54.294Z,4.60
2018-07-27T11:43:53.057Z,4.80
2018-07-27T11:48:51.446Z,4.40
2018-07-27T11:53:48.638Z,4.30
2018-07-27T11:58:44.352Z,4.80
2018-07-27T12:03:41.666Z,5.90
2018-07-27T12:08:41.120Z,4.30
2018-07-27T12:13:37.861Z,4.10
2018-07-27T12:18:46.174Z,4.00
2018-07-27T12:23:56.308Z,5.40
2018-07-27T12:28:57.161Z,3.70
2018-07-27T12:33:54.240Z,4.60
2018-07-27T12:39:00.748Z,3.80
2018-07-27T12:44:01.917Z,4.40
2018-07-27T12:49:03.739Z,4.30
2018-07-27T12:54:00.072Z,3.80
2018-07-27T12:59:09.489Z,3.80
2018-07-27T13:04:46.467Z,4.60
2018-07-27T13:09:43.600Z,3.80
2018-07-27T13:20:40.567Z,4.70
2018-07-27T13:25:47.309Z,5.00
2018-07-27T13:30:42.379Z,4.60
2018-07-27T13:40:40.331Z,4.60
2018-07-27T13:52:00.213Z,4.80
2018-07-27T13:57:29.039Z,5.20
2018-07-27T14:02:36.568Z,3.80
2018-07-27T14:07:31.949Z,6.70
2018-07-27T14:12:25.712Z,4.60
2018-07-27T14:17:25.992Z,3.80
2018-07-27T14:22:23.490Z,5.00
2018-07-27T14:27:23.198Z,4.60
2018-07-27T14:32:34.577Z,4.80
2018-07-27T14:42:46.731Z,5.40
2018-07-27T14:47:41.288Z,5.80
2018-07-27T14:57:44.255Z,4.40
2018-07-27T15:02:39.218Z,4.10
2018-07-27T15:07:47.789Z,5.00
2018-07-27T15:13:01.609Z,5.40
2018-07-27T15:17:58.107Z,3.80
2018-07-27T15:22:52.844Z,3.80
2018-07-27T15:27:59.285Z,4.20
2018-07-27T15:33:01.383Z,5.80
2018-07-27T15:38:09.140Z,4.10
2018-07-27T15:43:05.600Z,8.60
2018-07-27T15:48:03.104Z,4.90
2018-07-27T15:52:58.639Z,4.40
2018-07-27T15:57:55.483Z,4.40
2018-07-27T16:02:50.967Z,4.50
2018-07-27T16:07:46.600Z,4.60
2018-07-27T16:12:41.484Z,6.00
2018-07-27T16:17:45.416Z,4.50
2018-07-27T16:22:39.847Z,6.00
2018-07-27T16:27:35.001Z,4.50
2018-07-27T16:32:31.799Z,6.10
2018-07-27T16:37:27.346Z,4.70
2018-07-27T16:42:25.565Z,5.50
2018-07-27T16:47:21.156Z,9.20
2018-07-27T16:52:16.318Z,4.00
2018-07-27T16:57:11.900Z,4.50
2018-07-27T17:02:07.038Z,3.30
2018-07-27T17:07:02.149Z,3.60
2018-07-27T17:11:57.633Z,3.70
2018-07-27T17:16:54.696Z,12.70
2018-07-27T17:21:50.008Z,4.80
2018-07-27T17:26:46.227Z,9.10
2018-07-27T17:31:41.216Z,4.80
2018-07-27T17:36:37.239Z,11.50
2018-07-27T17:41:30.060Z,5.60
2018-07-27T17:46:25.560Z,4.90
2018-07-27T17:51:20.232Z,4.50
2018-07-27T17:56:14.984Z,10.40
2018-07-27T18:01:10.089Z,10.60
2018-07-27T18:06:05.165Z,5.70
2018-07-27T18:11:01.245Z,12.80
2018-07-27T18:15:56.025Z,16.50
2018-07-27T18:20:49.056Z,7.90
2018-07-27T18:25:45.663Z,81.40
2018-07-27T18:30:40.394Z,9.70
2018-07-27T18:35:37.226Z,60.20
2018-07-27T18:40:32.957Z,76.30
2018-07-27T18:45:27.582Z,40.90
2018-07-27T18:50:21.704Z,82.30
2018-07-27T18:55:17.798Z,68.70
2018-07-27T19:00:13.260Z,94.50
2018-07-27T19:05:08.554Z,27.90
2018-07-27T19:10:02.516Z,29.70
2018-07-27T19:14:56.774Z,22.70
2018-07-27T19:19:51.076Z,28.50
2018-07-27T19:24:47.979Z,15.60
2018-07-27T19:29:42.864Z,7.00
2018-07-27T19:34:36.447Z,17.10
2018-07-27T19:39:32.475Z,8.50
2018-07-27T19:44:25.760Z,10.30
2018-07-27T19:49:20.221Z,14.10
2018-07-27T19:54:14.256Z,18.10
2018-07-27T19:59:08.305Z,12.40
2018-07-27T20:04:02.803Z,11.60
2018-07-27T20:08:56.761Z,7.80
2018-07-27T20:13:51.364Z,8.30
2018-07-27T20:18:45.537Z,8.90
2018-07-27T20:23:39.026Z,12.60
2018-07-27T20:28:33.226Z,11.40
2018-07-27T20:33:27.347Z,16.80
2018-07-27T20:38:21.476Z,14.30
2018-07-27T20:43:15.411Z,14.70
2018-07-27T20:48:09.325Z,10.80
2018-07-27T20:53:03.611Z,13.80
2018-07-27T20:57:57.631Z,11.10
2018-07-27T21:02:51.851Z,10.30
2018-07-27T21:07:46.059Z,7.70
2018-07-27T21:12:39.784Z,6.50
2018-07-27T21:17:33.931Z,7.40
2018-07-27T21:22:28.190Z,10.20
2018-07-27T21:27:22.424Z,8.10
2018-07-27T21:32:15.800Z,9.10
2018-07-27T21:37:10.182Z,7.50
2018-07-27T21:42:04.332Z,17.70
2018-07-27T21:46:57.771Z,18.00
2018-07-27T21:51:51.541Z,7.90
2018-07-27T21:56:45.775Z,6.10
2018-07-27T22:01:40.105Z,6.30
2018-07-27T22:06:33.167Z,13.20
2018-07-27T22:11:26.560Z,11.50
2018-07-27T22:16:19.975Z,10.20
2018-07-27T22:21:15.884Z,6.40
2018-07-27T22:26:08.661Z,5.70
2018-07-27T22:31:01.876Z,4.70
2018-07-27T22:35:55.033Z,4.80
2018-07-27T22:40:48.534Z,6.50
2018-07-27T22:45:43.223Z,5.30
2018-07-27T22:50:36.367Z,13.80
2018-07-27T22:55:29.723Z,4.80
2018-07-27T23:00:23.017Z,4.40
2018-07-27T23:05:17.309Z,4.80
2018-07-27T23:10:10.489Z,5.40
2018-07-27T23:15:03.972Z,4.20
2018-07-27T23:19:59.105Z,4.90
2018-07-27T23:24:53.251Z,22.20
2018-07-27T23:29:46.919Z,6.40
2018-07-27T23:34:41.185Z,4.30
2018-07-27T23:39:34.341Z,4.50
2018-07-27T23:44:27.539Z,4.90
2018-07-27T23:49:22.121Z,3.70
2018-07-27T23:54:15.836Z,4.90
2018-07-27T23:59:09.079Z,4.60
